createdAt,value
2018-10-07T00:01:46.400Z,13.50
2018-10-07T00:04:14.457Z,13.30
2018-10-07T00:06:42.656Z,13.30
2018-10-07T00:09:10.765Z,13.40
2018-10-07T00:11:38.908Z,13.50
2018-10-07T00:14:07.062Z,13.50
2018-10-07T00:16:35.190Z,13.40
2018-10-07T00:19:03.434Z,13.20
2018-10-07T00:21:31.577Z,13.20
2018-10-07T00:23:59.694Z,13.10
2018-10-07T00:26:27.756Z,13.20
2018-10-07T00:28:55.854Z,13.20
2018-10-07T00:31:24.093Z,13.10
2018-10-07T00:33:52.267Z,13.00
2018-10-07T00:36:20.452Z,13.00
2018-10-07T00:38:48.695Z,13.00
2018-10-07T00:41:16.777Z,13.00
2018-10-07T00:43:45.955Z,13.10
2018-10-07T00:46:14.006Z,13.20
2018-10-07T00:48:42.187Z,13.10
2018-10-07T00:51:10.381Z,13.10
2018-10-07T00:53:38.466Z,13.00
2018-10-07T00:56:06.658Z,12.90
2018-10-07T00:58:34.775Z,12.90
2018-10-07T01:01:02.969Z,12.80
2018-10-07T01:03:31.092Z,12.80
2018-10-07T01:05:59.186Z,12.60
2018-10-07T01:08:27.355Z,12.70
2018-10-07T01:10:55.453Z,12.80
2018-10-07T01:13:23.524Z,12.80
2018-10-07T01:15:51.609Z,12.80
2018-10-07T01:18:19.691Z,12.80
2018-10-07T01:20:47.928Z,12.90
2018-10-07T01:23:16.019Z,12.70
2018-10-07T01:25:44.137Z,12.60
2018-10-07T01:28:12.230Z,12.70
2018-10-07T01:30:40.347Z,12.60
2018-10-07T01:33:08.431Z,12.50
2018-10-07T01:35:36.477Z,12.60
2018-10-07T01:38:04.510Z,12.50
2018-10-07T01:40:32.628Z,12.30
2018-10-07T01:43:00.617Z,12.20
2018-10-07T01:45:28.699Z,12.30
2018-10-07T01:47:56.736Z,12.20
2018-10-07T01:50:24.819Z,12.30
2018-10-07T01:52:52.822Z,12.30
2018-10-07T01:55:21.109Z,12.30
2018-10-07T01:57:49.135Z,12.30
2018-10-07T02:00:17.212Z,12.40
2018-10-07T02:02:45.274Z,12.10
2018-10-07T02:05:13.323Z,12.20
2018-10-07T02:07:41.448Z,12.20
2018-10-07T02:10:09.505Z,12.20
2018-10-07T02:12:37.566Z,12.10
2018-10-07T02:15:05.684Z,12.10
2018-10-07T02:17:33.754Z,12.00
2018-10-07T02:20:01.882Z,11.90
2018-10-07T02:22:29.968Z,11.90
2018-10-07T02:24:57.992Z,12.00
2018-10-07T02:27:26.024Z,12.00
2018-10-07T02:29:54.077Z,12.10
2018-10-07T02:32:22.162Z,12.00
2018-10-07T02:34:50.214Z,11.90
2018-10-07T02:37:18.344Z,11.90
2018-10-07T02:39:46.410Z,11.80
2018-10-07T02:42:14.432Z,11.60
2018-10-07T02:44:42.512Z,11.60
2018-10-07T02:47:10.572Z,11.60
2018-10-07T02:49:38.641Z,11.70
2018-10-07T02:52:07.026Z,11.70
2018-10-07T02:54:35.125Z,11.80
2018-10-07T02:57:03.299Z,11.80
2018-10-07T02:59:31.440Z,11.80
2018-10-07T03:01:59.591Z,11.80
2018-10-07T03:04:27.673Z,11.70
2018-10-07T03:06:55.735Z,11.80
2018-10-07T03:09:23.879Z,11.90
2018-10-07T03:11:51.912Z,11.90
2018-10-07T03:14:19.948Z,12.00
2018-10-07T03:16:47.933Z,11.80
2018-10-07T03:19:15.880Z,11.80
2018-10-07T03:21:44.009Z,11.70
2018-10-07T03:24:12.117Z,11.70
2018-10-07T03:26:40.221Z,11.80
2018-10-07T03:29:08.309Z,11.90
2018-10-07T03:31:36.489Z,11.90
2018-10-07T03:34:04.677Z,11.70
2018-10-07T03:36:32.744Z,11.70
2018-10-07T03:39:00.861Z,11.70
2018-10-07T03:41:28.973Z,11.90
2018-10-07T03:43:57.066Z,12.10
2018-10-07T03:46:25.109Z,12.30
2018-10-07T03:48:53.171Z,12.40
2018-10-07T03:51:21.228Z,12.60
2018-10-07T03:53:49.309Z,12.60
2018-10-07T03:56:17.412Z,12.50
2018-10-07T03:58:45.437Z,12.30
2018-10-07T04:01:13.659Z,12.30
2018-10-07T04:03:41.996Z,12.30
2018-10-07T04:06:10.116Z,12.40
2018-10-07T04:08:38.239Z,12.20
2018-10-07T04:11:06.502Z,12.30
2018-10-07T04:13:34.560Z,11.90
2018-10-07T04:16:02.559Z,12.00
2018-10-07T04:18:30.660Z,11.90
2018-10-07T04:20:58.708Z,11.90
2018-10-07T04:23:26.814Z,11.80
2018-10-07T04:25:54.954Z,11.60
2018-10-07T04:28:23.007Z,11.80
2018-10-07T04:30:51.138Z,11.90
2018-10-07T04:33:19.216Z,12.10
2018-10-07T04:35:47.244Z,11.10
2018-10-07T04:38:15.289Z,11.90
2018-10-07T04:40:43.313Z,11.70
2018-10-07T04:43:11.353Z,11.60
2018-10-07T04:45:39.418Z,11.70
2018-10-07T04:48:07.605Z,11.80
2018-10-07T04:50:35.881Z,11.50
2018-10-07T04:53:04.121Z,11.60
2018-10-07T04:55:32.268Z,11.70
2018-10-07T04:58:00.363Z,11.70
2018-10-07T05:00:28.576Z,11.70
2018-10-07T05:02:56.652Z,11.70
2018-10-07T05:05:26.071Z,11.60
2018-10-07T05:07:54.278Z,11.50
2018-10-07T05:10:50.756Z,11.50
2018-10-07T05:13:20.776Z,11.40
2018-10-07T05:15:53.243Z,11.40
2018-10-07T05:18:21.404Z,11.50
2018-10-07T05:20:49.643Z,11.40
2018-10-07T05:23:18.880Z,11.50
2018-10-07T05:25:47.116Z,11.10
2018-10-07T05:28:15.536Z,11.00
2018-10-07T05:30:43.676Z,11.00
2018-10-07T05:33:11.892Z,11.00
2018-10-07T05:35:39.970Z,10.90
2018-10-07T05:38:08.044Z,10.90
2018-10-07T05:40:36.137Z,10.80
2018-10-07T05:43:04.268Z,10.80
2018-10-07T05:45:32.434Z,10.90
2018-10-07T05:48:00.461Z,10.70
2018-10-07T05:50:28.514Z,10.90
2018-10-07T05:52:56.582Z,11.00
2018-10-07T05:55:24.740Z,11.20
2018-10-07T05:57:58.591Z,11.00
2018-10-07T06:00:28.740Z,10.50
2018-10-07T06:03:22.652Z,10.80
2018-10-07T06:05:51.526Z,11.30
2018-10-07T06:08:20.518Z,11.10
2018-10-07T06:10:48.679Z,11.20
2018-10-07T06:13:16.797Z,11.10
2018-10-07T06:15:45.663Z,11.70
2018-10-07T06:18:14.058Z,12.00
2018-10-07T06:20:42.230Z,12.30
2018-10-07T06:23:10.357Z,12.60
2018-10-07T06:25:38.510Z,12.70
2018-10-07T06:28:06.644Z,13.10
2018-10-07T06:30:34.972Z,13.10
2018-10-07T06:33:03.034Z,13.30
2018-10-07T06:35:31.176Z,13.50
2018-10-07T06:37:59.327Z,13.50
2018-10-07T06:40:27.420Z,13.90
2018-10-07T06:42:55.566Z,14.10
2018-10-07T06:45:23.968Z,14.30
2018-10-07T06:47:52.217Z,14.00
2018-10-07T06:50:20.396Z,14.10
2018-10-07T06:52:48.544Z,14.20
2018-10-07T06:55:16.898Z,14.40
2018-10-07T06:57:45.272Z,14.40
2018-10-07T07:00:13.629Z,14.20
2018-10-07T07:02:41.927Z,14.50
2018-10-07T07:05:10.157Z,14.60
2018-10-07T07:07:38.292Z,14.80
2018-10-07T07:10:06.764Z,14.70
2018-10-07T07:12:35.089Z,14.90
2018-10-07T07:15:03.338Z,14.80
2018-10-07T07:17:31.565Z,15.00
2018-10-07T07:19:59.901Z,14.90
2018-10-07T07:22:28.227Z,15.20
2018-10-07T07:24:56.455Z,15.40
2018-10-07T07:27:24.604Z,15.30
2018-10-07T07:29:52.778Z,15.40
2018-10-07T07:32:26.119Z,15.20
2018-10-07T07:34:54.517Z,15.50
2018-10-07T07:37:22.725Z,15.40
2018-10-07T07:39:50.873Z,15.40
2018-10-07T07:42:19.146Z,15.40
2018-10-07T07:44:47.255Z,15.60
2018-10-07T07:47:16.247Z,15.50
2018-10-07T07:49:44.941Z,15.60
2018-10-07T07:52:13.243Z,15.90
2018-10-07T07:54:41.508Z,16.00
2018-10-07T07:59:56.923Z,15.90
2018-10-07T08:02:25.457Z,16.10
2018-10-07T08:04:53.750Z,16.40
2018-10-07T08:07:22.061Z,16.20
2018-10-07T08:09:50.221Z,16.30
2018-10-07T08:12:18.529Z,16.00
2018-10-07T08:14:46.762Z,16.20
2018-10-07T08:17:15.064Z,16.00
2018-10-07T08:19:43.281Z,15.90
2018-10-07T08:22:11.588Z,15.80
2018-10-07T08:24:39.797Z,15.80
2018-10-07T08:27:08.091Z,15.70
2018-10-07T08:29:36.352Z,15.70
2018-10-07T08:32:04.689Z,15.90
2018-10-07T08:34:32.913Z,15.80
2018-10-07T08:37:01.130Z,15.90
2018-10-07T08:39:29.333Z,15.90
2018-10-07T08:41:57.577Z,15.80
2018-10-07T08:44:26.503Z,15.80
2018-10-07T08:46:54.967Z,15.80
2018-10-07T08:49:23.287Z,15.90
2018-10-07T08:51:51.510Z,15.90
2018-10-07T08:54:19.771Z,15.90
2018-10-07T08:56:48.077Z,16.00
2018-10-07T08:59:16.275Z,16.00
2018-10-07T09:01:44.609Z,16.00
2018-10-07T09:04:13.094Z,16.50
2018-10-07T09:06:41.477Z,16.40
2018-10-07T09:09:10.451Z,16.50
2018-10-07T09:11:38.741Z,16.60
2018-10-07T09:14:07.057Z,16.50
2018-10-07T09:16:35.391Z,16.50
2018-10-07T09:19:03.853Z,16.50
2018-10-07T09:21:32.125Z,16.70
2018-10-07T09:24:00.403Z,16.90
2018-10-07T09:26:29.031Z,17.20
2018-10-07T09:28:57.342Z,17.20
2018-10-07T09:31:25.636Z,17.40
2018-10-07T09:33:53.919Z,17.60
2018-10-07T09:36:22.072Z,17.60
2018-10-07T09:38:50.270Z,18.00
2018-10-07T09:41:18.581Z,17.70
2018-10-07T09:43:47.103Z,17.30
2018-10-07T09:46:15.647Z,17.00
2018-10-07T09:48:44.192Z,17.20
2018-10-07T09:51:12.462Z,17.60
2018-10-07T09:53:40.899Z,17.50
2018-10-07T09:56:09.202Z,17.40
2018-10-07T09:58:38.977Z,18.10
2018-10-07T10:01:07.301Z,17.90
2018-10-07T10:03:35.914Z,17.80
2018-10-07T10:06:04.216Z,17.90
2018-10-07T10:08:32.926Z,17.80
2018-10-07T10:11:01.241Z,17.40
2018-10-07T10:13:29.667Z,17.60
2018-10-07T10:15:57.897Z,17.80
2018-10-07T10:18:46.183Z,17.20
2018-10-07T10:21:30.941Z,17.10
2018-10-07T10:24:36.680Z,17.20
2018-10-07T10:27:47.697Z,17.30
2018-10-07T10:30:30.442Z,17.60
2018-10-07T10:33:16.971Z,18.10
2018-10-07T10:38:04.424Z,17.50
2018-10-07T10:40:37.782Z,17.20
2018-10-07T10:43:21.859Z,16.90
2018-10-07T10:46:44.615Z,17.20
2018-10-07T10:49:36.649Z,17.20
2018-10-07T10:52:16.701Z,17.40
2018-10-07T10:55:00.100Z,17.70
2018-10-07T10:57:53.196Z,17.40
2018-10-07T11:00:27.081Z,17.60
2018-10-07T11:05:48.314Z,17.50
2018-10-07T11:08:42.969Z,16.70
2018-10-07T11:11:26.699Z,16.80
2018-10-07T11:14:05.161Z,17.20
2018-10-07T11:18:51.026Z,17.50
2018-10-07T11:23:39.510Z,17.30
2018-10-07T11:26:29.924Z,16.80
2018-10-07T11:29:10.238Z,16.50
2018-10-07T11:31:50.597Z,16.90
2018-10-07T11:36:43.282Z,16.80
2018-10-07T11:39:27.104Z,17.10
2018-10-07T11:42:20.142Z,17.00
2018-10-07T11:45:05.490Z,16.90
2018-10-07T11:47:56.515Z,17.20
2018-10-07T11:50:44.706Z,17.30
2018-10-07T11:53:45.607Z,17.90
2018-10-07T11:56:13.850Z,17.90
2018-10-07T11:58:42.182Z,18.60
2018-10-07T12:01:10.523Z,18.50
2018-10-07T12:03:38.719Z,17.90
2018-10-07T12:06:06.946Z,18.20
2018-10-07T12:08:35.336Z,18.30
2018-10-07T12:11:03.619Z,18.10
2018-10-07T12:13:32.442Z,18.50
2018-10-07T12:16:00.867Z,18.00
2018-10-07T12:18:29.129Z,17.90
2018-10-07T12:20:57.339Z,18.00
2018-10-07T12:23:25.547Z,17.70
2018-10-07T12:25:53.789Z,17.60
2018-10-07T12:28:21.935Z,17.60
2018-10-07T12:30:50.271Z,17.90
2018-10-07T12:33:18.512Z,17.40
2018-10-07T12:35:46.675Z,17.30
2018-10-07T12:38:14.938Z,17.20
2018-10-07T12:40:44.320Z,16.50
2018-10-07T12:43:12.587Z,16.60
2018-10-07T12:45:40.925Z,16.60
2018-10-07T12:48:09.030Z,16.50
2018-10-07T12:50:37.310Z,16.50
2018-10-07T12:53:05.681Z,16.60
2018-10-07T12:55:34.128Z,16.80
2018-10-07T12:58:02.378Z,16.60
2018-10-07T13:00:30.618Z,16.70
2018-10-07T13:02:58.793Z,16.90
2018-10-07T13:05:27.034Z,16.40
2018-10-07T13:07:55.222Z,16.50
2018-10-07T13:10:23.555Z,16.00
2018-10-07T13:12:52.435Z,16.30
2018-10-07T13:15:20.772Z,16.50
2018-10-07T13:17:49.195Z,16.30
2018-10-07T13:20:17.484Z,16.20
2018-10-07T13:22:45.902Z,16.10
2018-10-07T13:25:15.445Z,15.80
2018-10-07T13:27:43.754Z,15.70
2018-10-07T13:30:11.941Z,15.60
2018-10-07T13:32:40.407Z,15.40
2018-10-07T13:35:09.125Z,15.40
2018-10-07T13:37:37.494Z,15.40
2018-10-07T13:40:06.283Z,15.60
2018-10-07T13:42:34.593Z,15.40
2018-10-07T13:45:02.955Z,15.50
2018-10-07T13:47:31.077Z,15.50
2018-10-07T13:49:59.547Z,15.70
2018-10-07T13:52:27.812Z,15.50
2018-10-07T13:54:56.200Z,15.30
2018-10-07T13:57:25.418Z,15.00
2018-10-07T13:59:53.679Z,14.90
2018-10-07T14:02:21.960Z,14.70
2018-10-07T14:04:50.175Z,15.10
2018-10-07T14:07:18.270Z,15.40
2018-10-07T14:09:46.634Z,15.30
2018-10-07T14:12:14.806Z,15.00
2018-10-07T14:14:43.022Z,15.20
2018-10-07T14:17:11.288Z,15.40
2018-10-07T14:19:39.432Z,15.20
2018-10-07T14:22:07.596Z,15.00
2018-10-07T14:24:36.004Z,15.10
2018-10-07T14:27:04.368Z,14.90
2018-10-07T14:29:32.533Z,14.80
2018-10-07T14:32:00.714Z,14.90
2018-10-07T14:34:28.869Z,14.70
2018-10-07T14:36:57.061Z,14.50
2018-10-07T14:39:25.219Z,14.10
2018-10-07T14:41:53.423Z,14.20
2018-10-07T14:44:21.633Z,14.10
2018-10-07T14:46:50.006Z,14.30
2018-10-07T14:49:18.340Z,14.40
2018-10-07T14:51:46.813Z,14.30
2018-10-07T14:54:15.011Z,14.30
2018-10-07T14:56:43.161Z,14.50
2018-10-07T14:59:11.401Z,14.60
2018-10-07T15:01:39.830Z,14.60
2018-10-07T15:04:08.142Z,14.70
2018-10-07T15:06:36.540Z,14.20
2018-10-07T15:09:09.395Z,14.10
2018-10-07T15:11:37.688Z,14.20
2018-10-07T15:14:06.118Z,14.30
2018-10-07T15:16:34.616Z,14.50
2018-10-07T15:19:02.929Z,14.50
2018-10-07T15:21:31.433Z,14.70
2018-10-07T15:23:59.674Z,14.40
2018-10-07T15:26:27.928Z,14.40
2018-10-07T15:28:56.111Z,14.80
2018-10-07T15:31:24.369Z,14.60
2018-10-07T15:33:52.736Z,15.10
2018-10-07T15:36:21.078Z,15.20
2018-10-07T15:38:49.338Z,15.40
2018-10-07T15:41:18.069Z,15.60
2018-10-07T15:43:46.406Z,15.40
2018-10-07T15:46:14.650Z,15.30
2018-10-07T15:48:42.899Z,15.00
2018-10-07T15:51:11.201Z,14.50
2018-10-07T15:53:39.434Z,14.70
2018-10-07T15:56:07.800Z,14.40
2018-10-07T15:58:36.037Z,14.20
2018-10-07T16:01:04.588Z,14.10
2018-10-07T16:03:32.929Z,14.20
2018-10-07T16:06:01.225Z,14.10
2018-10-07T16:08:29.522Z,14.10
2018-10-07T16:10:57.693Z,14.00
2018-10-07T16:13:26.116Z,13.90
2018-10-07T16:15:54.340Z,14.00
2018-10-07T16:18:22.718Z,13.90
2018-10-07T16:20:51.094Z,13.90
2018-10-07T16:23:19.420Z,13.70
2018-10-07T16:25:47.792Z,13.80
2018-10-07T16:28:15.952Z,13.70
2018-10-07T16:30:44.384Z,13.70
2018-10-07T16:33:12.697Z,13.60
2018-10-07T16:35:41.075Z,13.50
2018-10-07T16:38:09.377Z,13.50
2018-10-07T16:40:37.612Z,13.50
2018-10-07T16:43:06.025Z,13.30
2018-10-07T16:45:34.345Z,13.40
2018-10-07T16:48:02.671Z,13.40
2018-10-07T16:50:31.080Z,13.40
2018-10-07T16:52:59.558Z,13.40
2018-10-07T16:55:27.860Z,13.40
2018-10-07T16:57:56.262Z,13.30
2018-10-07T17:00:24.584Z,13.30
2018-10-07T17:02:52.979Z,13.30
2018-10-07T17:05:22.252Z,13.30
2018-10-07T17:07:50.539Z,13.40
2018-10-07T17:10:18.823Z,13.20
2018-10-07T17:12:47.040Z,13.30
2018-10-07T17:15:15.392Z,13.30
2018-10-07T17:17:43.728Z,13.20
2018-10-07T17:20:11.991Z,13.40
2018-10-07T17:22:40.607Z,13.40
2018-10-07T17:25:08.901Z,13.40
2018-10-07T17:27:37.279Z,13.50
2018-10-07T17:30:05.758Z,13.50
2018-10-07T17:32:34.446Z,13.50
2018-10-07T17:35:02.753Z,13.50
2018-10-07T17:37:31.071Z,13.50
2018-10-07T17:39:59.392Z,13.50
2018-10-07T17:42:27.689Z,13.50
2018-10-07T17:44:55.940Z,13.50
2018-10-07T17:47:24.242Z,13.40
2018-10-07T17:49:52.603Z,13.60
2018-10-07T17:52:21.007Z,13.50
2018-10-07T17:54:49.399Z,13.40
2018-10-07T17:57:17.634Z,13.40
2018-10-07T17:59:46.002Z,13.30
2018-10-07T18:02:14.343Z,13.30
2018-10-07T18:04:42.865Z,13.20
2018-10-07T18:07:11.233Z,13.20
2018-10-07T18:09:39.636Z,13.10
2018-10-07T18:12:07.940Z,13.10
2018-10-07T18:14:36.265Z,13.10
2018-10-07T18:17:04.586Z,13.00
2018-10-07T18:19:32.971Z,13.00
2018-10-07T18:22:01.345Z,12.80
2018-10-07T18:24:29.677Z,12.90
2018-10-07T18:26:57.918Z,12.90
2018-10-07T18:29:26.369Z,12.70
2018-10-07T18:31:54.743Z,12.40
2018-10-07T18:34:23.288Z,12.80
2018-10-07T18:36:51.507Z,12.80
2018-10-07T18:39:19.950Z,12.70
2018-10-07T18:41:48.572Z,12.60
2018-10-07T18:44:16.869Z,12.70
2018-10-07T18:46:45.136Z,12.70
2018-10-07T18:49:13.447Z,12.70
2018-10-07T18:51:41.690Z,12.60
2018-10-07T18:54:09.962Z,12.60
2018-10-07T18:56:38.191Z,12.60
2018-10-07T18:59:06.410Z,12.60
2018-10-07T19:01:34.692Z,12.60
2018-10-07T19:04:03.053Z,12.60
2018-10-07T19:06:31.364Z,12.60
2018-10-07T19:08:59.768Z,12.60
2018-10-07T19:11:28.090Z,12.50
2018-10-07T19:13:56.586Z,12.50
2018-10-07T19:16:24.922Z,12.50
2018-10-07T19:18:53.381Z,12.50
2018-10-07T19:21:22.030Z,12.40
2018-10-07T19:23:50.409Z,12.50
2018-10-07T19:26:18.728Z,12.40
2018-10-07T19:28:47.044Z,12.40
2018-10-07T19:31:15.259Z,12.40
2018-10-07T19:33:43.965Z,12.40
2018-10-07T19:36:12.303Z,12.30
2018-10-07T19:38:40.571Z,12.30
2018-10-07T19:41:09.077Z,12.20
2018-10-07T19:43:37.482Z,12.20
2018-10-07T19:46:05.969Z,12.10
2018-10-07T19:48:34.433Z,12.10
2018-10-07T19:51:02.850Z,12.10
2018-10-07T19:53:31.093Z,12.00
2018-10-07T19:55:59.422Z,12.00
2018-10-07T19:58:27.737Z,11.90
2018-10-07T20:00:56.370Z,11.90
2018-10-07T20:03:24.741Z,12.00
2018-10-07T20:05:53.043Z,12.00
2018-10-07T20:08:21.638Z,11.90
2018-10-07T20:10:50.175Z,11.90
2018-10-07T20:13:18.879Z,11.80
2018-10-07T20:15:47.458Z,11.70
2018-10-07T20:18:15.966Z,11.70
2018-10-07T20:20:44.314Z,11.70
2018-10-07T20:23:12.616Z,11.70
2018-10-07T20:25:41.228Z,11.70
2018-10-07T20:28:09.906Z,11.60
2018-10-07T20:30:38.225Z,11.60
2018-10-07T20:33:06.812Z,11.70
2018-10-07T20:35:35.325Z,11.70
2018-10-07T20:38:03.926Z,11.70
2018-10-07T20:40:32.659Z,11.70
2018-10-07T20:43:00.849Z,11.70
2018-10-07T20:45:29.167Z,11.70
2018-10-07T20:47:57.490Z,11.80
2018-10-07T20:50:25.719Z,11.80
2018-10-07T20:52:54.056Z,11.80
2018-10-07T20:55:22.336Z,11.80
2018-10-07T20:57:50.670Z,11.90
2018-10-07T21:00:18.892Z,12.00
2018-10-07T21:02:47.683Z,12.00
2018-10-07T21:05:15.916Z,12.00
2018-10-07T21:07:44.155Z,12.10
2018-10-07T21:10:12.369Z,12.20
2018-10-07T21:12:40.940Z,12.20
2018-10-07T21:15:09.089Z,12.10
2018-10-07T21:17:37.390Z,12.10
2018-10-07T21:20:05.680Z,12.10
2018-10-07T21:22:33.937Z,12.20
2018-10-07T21:25:02.114Z,12.20
2018-10-07T21:27:30.407Z,12.10
2018-10-07T21:29:58.664Z,12.20
2018-10-07T21:32:26.863Z,12.00
2018-10-07T21:34:55.049Z,12.20
2018-10-07T21:37:23.396Z,12.20
2018-10-07T21:39:51.593Z,12.10
2018-10-07T21:42:19.740Z,12.10
2018-10-07T21:44:48.045Z,12.20
2018-10-07T21:47:16.306Z,12.20
2018-10-07T21:49:44.481Z,12.20
2018-10-07T21:52:12.557Z,12.30
2018-10-07T21:54:40.784Z,12.20
2018-10-07T21:57:08.970Z,12.20
2018-10-07T21:59:37.140Z,12.10
2018-10-07T22:02:05.243Z,12.10
2018-10-07T22:04:33.754Z,12.10
2018-10-07T22:07:02.012Z,12.10
2018-10-07T22:09:30.108Z,12.10
2018-10-07T22:11:58.244Z,12.10
2018-10-07T22:14:26.426Z,12.10
2018-10-07T22:16:54.619Z,12.10
2018-10-07T22:19:22.813Z,12.00
2018-10-07T22:21:51.039Z,12.10
2018-10-07T22:24:19.190Z,12.20
2018-10-07T22:26:47.449Z,12.10
2018-10-07T22:29:15.559Z,11.90
2018-10-07T22:31:43.805Z,12.00
2018-10-07T22:34:12.006Z,11.90
2018-10-07T22:36:40.110Z,11.90
2018-10-07T22:39:08.908Z,11.80
2018-10-07T22:41:37.292Z,11.90
2018-10-07T22:44:05.472Z,11.70
2018-10-07T22:46:33.630Z,11.80
2018-10-07T22:49:01.752Z,11.70
2018-10-07T22:51:29.863Z,11.60
2018-10-07T22:53:57.954Z,11.50
2018-10-07T22:56:26.150Z,11.40
2018-10-07T22:58:54.404Z,11.40
2018-10-07T23:01:22.627Z,11.30
2018-10-07T23:03:50.753Z,11.20
2018-10-07T23:06:18.918Z,11.20
2018-10-07T23:08:47.115Z,11.10
2018-10-07T23:11:15.243Z,11.00
2018-10-07T23:13:43.352Z,11.00
2018-10-07T23:16:11.529Z,11.00
2018-10-07T23:18:40.397Z,10.80
2018-10-07T23:21:08.535Z,10.90
2018-10-07T23:23:36.960Z,10.90
2018-10-07T23:26:05.090Z,10.90
2018-10-07T23:28:33.212Z,11.00
2018-10-07T23:31:01.287Z,10.80
2018-10-07T23:33:29.443Z,10.70
2018-10-07T23:35:57.541Z,10.60
2018-10-07T23:38:25.731Z,10.70
2018-10-07T23:40:55.225Z,10.60
2018-10-07T23:43:23.334Z,10.60
2018-10-07T23:45:51.524Z,10.50
2018-10-07T23:48:19.590Z,10.50
2018-10-07T23:50:47.759Z,10.40
2018-10-07T23:53:15.980Z,10.40
2018-10-07T23:55:44.183Z,10.40
2018-10-07T23:58:12.641Z,10.40
